sensor_id;sensor_type;location;lat;lon;timestamp;temperature;humidity
27544;DHT22;17996;51.056;3.656;2023-04-23T00:00:05;10.70;99.90
27544;DHT22;17996;51.056;3.656;2023-04-23T00:02:32;10.70;99.90
27544;DHT22;17996;51.056;3.656;2023-04-23T00:05:03;10.80;99.90
27544;DHT22;17996;51.056;3.656;2023-04-23T00:07:32;10.80;99.90
27544;DHT22;17996;51.056;3.656;2023-04-23T00:09:59;10.90;99.90
27544;DHT22;17996;51.056;3.656;2023-04-23T00:12:26;10.90;99.90
27544;DHT22;17996;51.056;3.656;2023-04-23T00:14:52;10.90;99.90
27544;DHT22;17996;51.056;3.656;2023-04-23T00:17:18;10.90;99.90
27544;DHT22;17996;51.056;3.656;2023-04-23T00:19:44;10.90;99.90
27544;DHT22;17996;51.056;3.656;2023-04-23T00:22:12;10.90;99.90
27544;DHT22;17996;51.056;3.656;2023-04-23T00:24:41;10.90;99.90
27544;DHT22;17996;51.056;3.656;2023-04-23T00:27:07;10.90;99.90
27544;DHT22;17996;51.056;3.656;2023-04-23T00:29:33;10.90;99.90
27544;DHT22;17996;51.056;3.656;2023-04-23T00:31:59;10.90;99.90
27544;DHT22;17996;51.056;3.656;2023-04-23T00:34:26;10.90;99.90
27544;DHT22;17996;51.056;3.656;2023-04-23T00:36:51;10.80;99.90
27544;DHT22;17996;51.056;3.656;2023-04-23T00:39:17;10.80;99.90
27544;DHT22;17996;51.056;3.656;2023-04-23T00:41:43;10.80;99.90
27544;DHT22;17996;51.056;3.656;2023-04-23T00:44:09;10.70;99.90
27544;DHT22;17996;51.056;3.656;2023-04-23T00:46:35;10.70;99.90
27544;DHT22;17996;51.056;3.656;2023-04-23T00:49:02;10.70;99.90
27544;DHT22;17996;51.056;3.656;2023-04-23T00:51:28;10.70;99.90
27544;DHT22;17996;51.056;3.656;2023-04-23T00:53:54;10.70;99.90
27544;DHT22;17996;51.056;3.656;2023-04-23T00:56:21;10.70;99.90
27544;DHT22;17996;51.056;3.656;2023-04-23T00:58:48;10.60;99.90
27544;DHT22;17996;51.056;3.656;2023-04-23T01:01:15;10.60;99.90
27544;DHT22;17996;51.056;3.656;2023-04-23T01:03:49;10.70;99.90
27544;DHT22;17996;51.056;3.656;2023-04-23T01:06:17;10.70;99.90
27544;DHT22;17996;51.056;3.656;2023-04-23T01:08:43;10.70;99.90
27544;DHT22;17996;51.056;3.656;2023-04-23T01:11:11;10.70;99.90
27544;DHT22;17996;51.056;3.656;2023-04-23T01:13:38;10.70;99.90
27544;DHT22;17996;51.056;3.656;2023-04-23T01:16:04;10.80;99.90
27544;DHT22;17996;51.056;3.656;2023-04-23T01:18:30;10.70;99.90
27544;DHT22;17996;51.056;3.656;2023-04-23T01:20:55;10.70;99.90
27544;DHT22;17996;51.056;3.656;2023-04-23T01:23:21;10.60;99.90
27544;DHT22;17996;51.056;3.656;2023-04-23T01:25:47;10.60;99.90
27544;DHT22;17996;51.056;3.656;2023-04-23T01:28:13;10.60;99.90
27544;DHT22;17996;51.056;3.656;2023-04-23T01:30:41;10.50;99.90
27544;DHT22;17996;51.056;3.656;2023-04-23T01:33:08;10.50;99.90
27544;DHT22;17996;51.056;3.656;2023-04-23T01:35:35;10.50;99.90
27544;DHT22;17996;51.056;3.656;2023-04-23T01:38:02;10.50;99.90
27544;DHT22;17996;51.056;3.656;2023-04-23T01:40:29;10.50;99.90
27544;DHT22;17996;51.056;3.656;2023-04-23T01:42:55;10.50;99.90
27544;DHT22;17996;51.056;3.656;2023-04-23T01:45:21;10.50;99.90
27544;DHT22;17996;51.056;3.656;2023-04-23T01:47:47;10.50;99.90
27544;DHT22;17996;51.056;3.656;2023-04-23T01:50:14;10.50;99.90
27544;DHT22;17996;51.056;3.656;2023-04-23T01:52:39;10.40;99.90
27544;DHT22;17996;51.056;3.656;2023-04-23T01:55:07;10.40;99.90
27544;DHT22;17996;51.056;3.656;2023-04-23T01:57:34;10.40;99.90
27544;DHT22;17996;51.056;3.656;2023-04-23T02:02:33;10.40;99.90
27544;DHT22;17996;51.056;3.656;2023-04-23T02:05:00;10.40;99.90
27544;DHT22;17996;51.056;3.656;2023-04-23T02:07:32;10.30;99.90
27544;DHT22;17996;51.056;3.656;2023-04-23T02:09:58;10.30;99.90
27544;DHT22;17996;51.056;3.656;2023-04-23T02:12:25;10.30;99.90
27544;DHT22;17996;51.056;3.656;2023-04-23T02:14:51;10.30;99.90
27544;DHT22;17996;51.056;3.656;2023-04-23T02:17:19;10.30;99.90
27544;DHT22;17996;51.056;3.656;2023-04-23T02:19:46;10.30;99.90
27544;DHT22;17996;51.056;3.656;2023-04-23T02:22:11;10.20;99.90
27544;DHT22;17996;51.056;3.656;2023-04-23T02:24:37;10.20;99.90
27544;DHT22;17996;51.056;3.656;2023-04-23T02:27:03;10.20;99.90
27544;DHT22;17996;51.056;3.656;2023-04-23T02:29:29;10.10;99.90
27544;DHT22;17996;51.056;3.656;2023-04-23T02:31:55;10.10;99.90
27544;DHT22;17996;51.056;3.656;2023-04-23T02:34:21;10.10;99.90
27544;DHT22;17996;51.056;3.656;2023-04-23T02:36:47;10.10;99.90
27544;DHT22;17996;51.056;3.656;2023-04-23T02:39:12;10.20;99.90
27544;DHT22;17996;51.056;3.656;2023-04-23T02:41:38;10.10;99.90
27544;DHT22;17996;51.056;3.656;2023-04-23T02:44:03;10.10;99.90
27544;DHT22;17996;51.056;3.656;2023-04-23T02:46:29;10.10;99.90
27544;DHT22;17996;51.056;3.656;2023-04-23T02:48:56;10.10;99.90
27544;DHT22;17996;51.056;3.656;2023-04-23T02:51:22;10.10;99.90
27544;DHT22;17996;51.056;3.656;2023-04-23T02:53:47;10.00;99.90
27544;DHT22;17996;51.056;3.656;2023-04-23T02:56:13;10.00;99.90
27544;DHT22;17996;51.056;3.656;2023-04-23T02:58:39;10.00;99.90
27544;DHT22;17996;51.056;3.656;2023-04-23T03:01:05;10.00;99.90
27544;DHT22;17996;51.056;3.656;2023-04-23T03:03:31;9.90;99.90
27544;DHT22;17996;51.056;3.656;2023-04-23T03:05:59;9.90;99.90
27544;DHT22;17996;51.056;3.656;2023-04-23T03:08:26;9.90;99.90
27544;DHT22;17996;51.056;3.656;2023-04-23T03:10:51;9.90;99.90
27544;DHT22;17996;51.056;3.656;2023-04-23T03:13:17;9.90;99.90
27544;DHT22;17996;51.056;3.656;2023-04-23T03:15:43;9.90;99.90
27544;DHT22;17996;51.056;3.656;2023-04-23T03:18:08;9.80;99.90
27544;DHT22;17996;51.056;3.656;2023-04-23T03:20:35;9.90;99.90
27544;DHT22;17996;51.056;3.656;2023-04-23T03:23:01;9.80;99.90
27544;DHT22;17996;51.056;3.656;2023-04-23T03:25:26;9.80;99.90
27544;DHT22;17996;51.056;3.656;2023-04-23T03:27:52;9.80;99.90
27544;DHT22;17996;51.056;3.656;2023-04-23T03:30:18;9.70;99.90
27544;DHT22;17996;51.056;3.656;2023-04-23T03:32:44;9.70;99.90
27544;DHT22;17996;51.056;3.656;2023-04-23T03:35:10;9.70;99.90
27544;DHT22;17996;51.056;3.656;2023-04-23T03:37:36;9.70;99.90
27544;DHT22;17996;51.056;3.656;2023-04-23T03:40:02;9.70;99.90
27544;DHT22;17996;51.056;3.656;2023-04-23T03:42:32;9.70;99.90
27544;DHT22;17996;51.056;3.656;2023-04-23T03:44:59;9.70;99.90
27544;DHT22;17996;51.056;3.656;2023-04-23T03:47:25;9.70;99.90
27544;DHT22;17996;51.056;3.656;2023-04-23T03:49:51;9.70;99.90
27544;DHT22;17996;51.056;3.656;2023-04-23T03:52:18;9.70;99.90
27544;DHT22;17996;51.056;3.656;2023-04-23T03:54:43;9.70;99.90
27544;DHT22;17996;51.056;3.656;2023-04-23T03:57:09;9.70;99.90
27544;DHT22;17996;51.056;3.656;2023-04-23T03:59:36;9.70;99.90
27544;DHT22;17996;51.056;3.656;2023-04-23T04:02:02;9.70;99.90
27544;DHT22;17996;51.056;3.656;2023-04-23T04:04:31;9.70;99.90
27544;DHT22;17996;51.056;3.656;2023-04-23T04:06:58;9.70;99.90
27544;DHT22;17996;51.056;3.656;2023-04-23T04:09:26;9.60;99.90
27544;DHT22;17996;51.056;3.656;2023-04-23T04:11:52;9.60;99.90
27544;DHT22;17996;51.056;3.656;2023-04-23T04:14:19;9.60;99.90
27544;DHT22;17996;51.056;3.656;2023-04-23T04:16:44;9.60;99.90
27544;DHT22;17996;51.056;3.656;2023-04-23T04:19:10;9.60;99.90
27544;DHT22;17996;51.056;3.656;2023-04-23T04:21:36;9.60;99.90
27544;DHT22;17996;51.056;3.656;2023-04-23T04:24:02;9.60;99.90
27544;DHT22;17996;51.056;3.656;2023-04-23T04:26:31;9.60;99.90
27544;DHT22;17996;51.056;3.656;2023-04-23T04:29:00;9.60;99.90
27544;DHT22;17996;51.056;3.656;2023-04-23T04:31:29;9.60;99.90
27544;DHT22;17996;51.056;3.656;2023-04-23T04:33:56;9.70;99.90
27544;DHT22;17996;51.056;3.656;2023-04-23T04:36:23;9.70;99.90
27544;DHT22;17996;51.056;3.656;2023-04-23T04:38:50;9.70;99.90
27544;DHT22;17996;51.056;3.656;2023-04-23T04:41:17;9.70;99.90
27544;DHT22;17996;51.056;3.656;2023-04-23T04:43:44;9.70;99.90
27544;DHT22;17996;51.056;3.656;2023-04-23T04:46:11;9.70;99.90
27544;DHT22;17996;51.056;3.656;2023-04-23T04:48:37;9.70;99.90
27544;DHT22;17996;51.056;3.656;2023-04-23T04:51:03;9.70;99.90
27544;DHT22;17996;51.056;3.656;2023-04-23T04:53:29;9.70;99.90
27544;DHT22;17996;51.056;3.656;2023-04-23T04:55:55;9.70;99.90
27544;DHT22;17996;51.056;3.656;2023-04-23T04:58:20;9.80;99.90
27544;DHT22;17996;51.056;3.656;2023-04-23T05:00:46;9.80;99.90
27544;DHT22;17996;51.056;3.656;2023-04-23T05:03:17;9.80;99.90
27544;DHT22;17996;51.056;3.656;2023-04-23T05:05:43;9.80;99.90
27544;DHT22;17996;51.056;3.656;2023-04-23T05:08:10;9.80;99.90
27544;DHT22;17996;51.056;3.656;2023-04-23T05:10:36;9.80;99.90
27544;DHT22;17996;51.056;3.656;2023-04-23T05:13:02;9.90;99.90
27544;DHT22;17996;51.056;3.656;2023-04-23T05:15:27;9.90;99.90
27544;DHT22;17996;51.056;3.656;2023-04-23T05:17:53;10.00;99.90
27544;DHT22;17996;51.056;3.656;2023-04-23T05:20:20;10.00;99.90
27544;DHT22;17996;51.056;3.656;2023-04-23T05:22:45;10.00;99.90
27544;DHT22;17996;51.056;3.656;2023-04-23T05:25:11;10.10;99.90
27544;DHT22;17996;51.056;3.656;2023-04-23T05:27:37;10.10;99.90
27544;DHT22;17996;51.056;3.656;2023-04-23T05:30:08;10.20;99.90
27544;DHT22;17996;51.056;3.656;2023-04-23T05:32:35;10.20;99.90
27544;DHT22;17996;51.056;3.656;2023-04-23T05:35:01;10.30;99.90
27544;DHT22;17996;51.056;3.656;2023-04-23T05:37:28;10.40;99.90
27544;DHT22;17996;51.056;3.656;2023-04-23T05:39:54;10.40;99.90
27544;DHT22;17996;51.056;3.656;2023-04-23T05:42:20;10.50;99.90
27544;DHT22;17996;51.056;3.656;2023-04-23T05:44:46;10.50;99.90
27544;DHT22;17996;51.056;3.656;2023-04-23T05:47:12;10.60;99.90
27544;DHT22;17996;51.056;3.656;2023-04-23T05:49:38;10.60;99.90
27544;DHT22;17996;51.056;3.656;2023-04-23T05:52:04;10.70;99.90
27544;DHT22;17996;51.056;3.656;2023-04-23T05:54:30;10.70;99.90
27544;DHT22;17996;51.056;3.656;2023-04-23T05:56:56;10.80;99.90
27544;DHT22;17996;51.056;3.656;2023-04-23T05:59:21;10.90;99.90
27544;DHT22;17996;51.056;3.656;2023-04-23T06:01:48;11.00;99.90
27544;DHT22;17996;51.056;3.656;2023-04-23T06:04:14;11.00;99.90
27544;DHT22;17996;51.056;3.656;2023-04-23T06:06:41;11.10;99.90
27544;DHT22;17996;51.056;3.656;2023-04-23T06:09:07;11.10;99.90
27544;DHT22;17996;51.056;3.656;2023-04-23T06:11:33;11.20;99.90
27544;DHT22;17996;51.056;3.656;2023-04-23T06:14:01;11.30;99.90
27544;DHT22;17996;51.056;3.656;2023-04-23T06:16:27;11.30;99.90
27544;DHT22;17996;51.056;3.656;2023-04-23T06:18:52;11.40;99.90
27544;DHT22;17996;51.056;3.656;2023-04-23T06:21:21;11.50;99.90
27544;DHT22;17996;51.056;3.656;2023-04-23T06:23:47;11.60;99.90
27544;DHT22;17996;51.056;3.656;2023-04-23T06:26:13;11.60;99.90
27544;DHT22;17996;51.056;3.656;2023-04-23T06:28:40;11.70;99.90
27544;DHT22;17996;51.056;3.656;2023-04-23T06:31:06;11.80;99.90
27544;DHT22;17996;51.056;3.656;2023-04-23T06:33:33;11.80;99.90
27544;DHT22;17996;51.056;3.656;2023-04-23T06:35:59;11.90;99.90
27544;DHT22;17996;51.056;3.656;2023-04-23T06:38:25;11.90;99.90
27544;DHT22;17996;51.056;3.656;2023-04-23T06:40:51;12.00;99.90
27544;DHT22;17996;51.056;3.656;2023-04-23T06:43:16;12.00;99.90
27544;DHT22;17996;51.056;3.656;2023-04-23T06:45:42;12.10;99.90
27544;DHT22;17996;51.056;3.656;2023-04-23T06:48:07;12.10;99.90
27544;DHT22;17996;51.056;3.656;2023-04-23T06:50:33;12.10;99.90
27544;DHT22;17996;51.056;3.656;2023-04-23T06:52:59;12.10;99.90
27544;DHT22;17996;51.056;3.656;2023-04-23T06:55:25;12.10;99.90
27544;DHT22;17996;51.056;3.656;2023-04-23T06:57:54;12.10;99.90
27544;DHT22;17996;51.056;3.656;2023-04-23T07:00:21;12.10;99.90
27544;DHT22;17996;51.056;3.656;2023-04-23T07:02:47;12.10;99.90
27544;DHT22;17996;51.056;3.656;2023-04-23T07:05:13;12.10;99.90
27544;DHT22;17996;51.056;3.656;2023-04-23T07:07:39;12.20;99.90
27544;DHT22;17996;51.056;3.656;2023-04-23T07:10:08;12.30;99.90
27544;DHT22;17996;51.056;3.656;2023-04-23T07:12:36;12.40;99.90
27544;DHT22;17996;51.056;3.656;2023-04-23T07:15:03;12.50;99.90
27544;DHT22;17996;51.056;3.656;2023-04-23T07:17:28;12.60;99.90
27544;DHT22;17996;51.056;3.656;2023-04-23T07:19:55;12.60;99.90
27544;DHT22;17996;51.056;3.656;2023-04-23T07:22:21;12.70;99.90
27544;DHT22;17996;51.056;3.656;2023-04-23T07:24:48;12.70;99.90
27544;DHT22;17996;51.056;3.656;2023-04-23T07:27:14;12.70;99.90
27544;DHT22;17996;51.056;3.656;2023-04-23T07:29:39;12.80;99.90
27544;DHT22;17996;51.056;3.656;2023-04-23T07:32:05;12.80;99.90
27544;DHT22;17996;51.056;3.656;2023-04-23T07:34:30;12.80;99.90
27544;DHT22;17996;51.056;3.656;2023-04-23T07:36:56;12.80;99.90
27544;DHT22;17996;51.056;3.656;2023-04-23T07:39:22;12.90;99.90
27544;DHT22;17996;51.056;3.656;2023-04-23T07:41:48;12.90;99.90
27544;DHT22;17996;51.056;3.656;2023-04-23T07:44:13;12.90;99.90
27544;DHT22;17996;51.056;3.656;2023-04-23T07:46:40;12.90;99.90
27544;DHT22;17996;51.056;3.656;2023-04-23T07:49:05;12.90;99.90
27544;DHT22;17996;51.056;3.656;2023-04-23T07:51:32;13.00;99.90
27544;DHT22;17996;51.056;3.656;2023-04-23T07:53:58;13.00;99.90
27544;DHT22;17996;51.056;3.656;2023-04-23T07:56:23;13.00;99.90
27544;DHT22;17996;51.056;3.656;2023-04-23T07:58:49;13.10;99.90
27544;DHT22;17996;51.056;3.656;2023-04-23T08:01:16;13.10;99.90
27544;DHT22;17996;51.056;3.656;2023-04-23T08:03:42;13.10;99.90
27544;DHT22;17996;51.056;3.656;2023-04-23T08:06:10;13.20;99.90
27544;DHT22;17996;51.056;3.656;2023-04-23T08:08:37;13.30;99.90
27544;DHT22;17996;51.056;3.656;2023-04-23T08:11:04;13.30;99.90
27544;DHT22;17996;51.056;3.656;2023-04-23T08:13:31;13.50;99.90
27544;DHT22;17996;51.056;3.656;2023-04-23T08:15:57;13.50;99.90
27544;DHT22;17996;51.056;3.656;2023-04-23T08:18:22;13.60;99.90
27544;DHT22;17996;51.056;3.656;2023-04-23T08:20:48;13.80;99.90
27544;DHT22;17996;51.056;3.656;2023-04-23T08:23:14;14.00;99.90
27544;DHT22;17996;51.056;3.656;2023-04-23T08:25:40;14.20;99.90
27544;DHT22;17996;51.056;3.656;2023-04-23T08:28:06;14.30;99.90
27544;DHT22;17996;51.056;3.656;2023-04-23T08:30:32;14.50;99.90
27544;DHT22;17996;51.056;3.656;2023-04-23T08:32:57;14.50;99.90
27544;DHT22;17996;51.056;3.656;2023-04-23T08:35:23;14.60;99.90
27544;DHT22;17996;51.056;3.656;2023-04-23T08:37:49;14.70;99.90
27544;DHT22;17996;51.056;3.656;2023-04-23T08:40:15;14.90;99.90
27544;DHT22;17996;51.056;3.656;2023-04-23T08:42:44;15.00;99.90
27544;DHT22;17996;51.056;3.656;2023-04-23T08:45:13;15.10;99.90
27544;DHT22;17996;51.056;3.656;2023-04-23T08:47:40;15.30;99.90
27544;DHT22;17996;51.056;3.656;2023-04-23T08:50:11;15.40;99.90
27544;DHT22;17996;51.056;3.656;2023-04-23T08:52:40;15.50;99.90
27544;DHT22;17996;51.056;3.656;2023-04-23T08:55:08;15.60;99.90
27544;DHT22;17996;51.056;3.656;2023-04-23T08:57:40;15.70;99.90
27544;DHT22;17996;51.056;3.656;2023-04-23T09:00:10;15.80;99.90
27544;DHT22;17996;51.056;3.656;2023-04-23T09:02:38;15.90;99.90
27544;DHT22;17996;51.056;3.656;2023-04-23T09:05:05;16.00;99.90
27544;DHT22;17996;51.056;3.656;2023-04-23T09:07:33;16.10;99.90
27544;DHT22;17996;51.056;3.656;2023-04-23T09:10:00;16.20;99.90
27544;DHT22;17996;51.056;3.656;2023-04-23T09:12:26;16.20;99.90
27544;DHT22;17996;51.056;3.656;2023-04-23T09:14:52;16.30;99.90
27544;DHT22;17996;51.056;3.656;2023-04-23T09:17:18;16.40;99.90
27544;DHT22;17996;51.056;3.656;2023-04-23T09:19:45;16.40;99.90
27544;DHT22;17996;51.056;3.656;2023-04-23T09:22:11;16.50;99.90
27544;DHT22;17996;51.056;3.656;2023-04-23T09:24:41;16.60;99.90
27544;DHT22;17996;51.056;3.656;2023-04-23T09:27:07;16.60;99.90
27544;DHT22;17996;51.056;3.656;2023-04-23T09:29:33;16.70;99.90
27544;DHT22;17996;51.056;3.656;2023-04-23T09:32:09;16.70;99.90
27544;DHT22;17996;51.056;3.656;2023-04-23T09:34:35;16.70;99.90
27544;DHT22;17996;51.056;3.656;2023-04-23T09:37:05;16.80;99.90
27544;DHT22;17996;51.056;3.656;2023-04-23T09:39:35;16.80;99.90
27544;DHT22;17996;51.056;3.656;2023-04-23T09:42:04;17.00;99.90
27544;DHT22;17996;51.056;3.656;2023-04-23T09:44:33;17.10;99.90
27544;DHT22;17996;51.056;3.656;2023-04-23T09:47:08;17.10;99.90
27544;DHT22;17996;51.056;3.656;2023-04-23T09:49:45;17.10;99.90
27544;DHT22;17996;51.056;3.656;2023-04-23T09:52:11;17.10;99.90
27544;DHT22;17996;51.056;3.656;2023-04-23T09:54:37;17.10;99.90
27544;DHT22;17996;51.056;3.656;2023-04-23T09:57:04;17.10;99.90
27544;DHT22;17996;51.056;3.656;2023-04-23T09:59:34;17.10;99.90
27544;DHT22;17996;51.056;3.656;2023-04-23T10:02:04;17.20;99.90
27544;DHT22;17996;51.056;3.656;2023-04-23T10:04:30;17.20;99.90
27544;DHT22;17996;51.056;3.656;2023-04-23T10:07:01;17.10;99.90
27544;DHT22;17996;51.056;3.656;2023-04-23T10:09:29;17.10;99.90
27544;DHT22;17996;51.056;3.656;2023-04-23T10:12:00;17.10;99.90
27544;DHT22;17996;51.056;3.656;2023-04-23T10:14:27;17.00;99.90
27544;DHT22;17996;51.056;3.656;2023-04-23T10:16:58;16.80;99.90
27544;DHT22;17996;51.056;3.656;2023-04-23T10:19:25;16.60;99.90
27544;DHT22;17996;51.056;3.656;2023-04-23T10:21:55;16.50;99.90
27544;DHT22;17996;51.056;3.656;2023-04-23T10:24:23;16.50;99.90
27544;DHT22;17996;51.056;3.656;2023-04-23T10:26:51;16.60;99.90
27544;DHT22;17996;51.056;3.656;2023-04-23T10:29:22;16.70;99.90
27544;DHT22;17996;51.056;3.656;2023-04-23T10:31:52;16.70;99.90
27544;DHT22;17996;51.056;3.656;2023-04-23T10:34:19;16.80;99.90
27544;DHT22;17996;51.056;3.656;2023-04-23T10:36:45;16.90;99.90
27544;DHT22;17996;51.056;3.656;2023-04-23T10:39:12;16.90;99.90
27544;DHT22;17996;51.056;3.656;2023-04-23T10:41:40;17.00;99.90
27544;DHT22;17996;51.056;3.656;2023-04-23T10:44:11;17.30;99.90
27544;DHT22;17996;51.056;3.656;2023-04-23T10:46:37;17.40;99.90
27544;DHT22;17996;51.056;3.656;2023-04-23T10:49:10;17.60;99.90
27544;DHT22;17996;51.056;3.656;2023-04-23T10:51:40;17.70;99.90
27544;DHT22;17996;51.056;3.656;2023-04-23T10:54:09;17.80;99.90
27544;DHT22;17996;51.056;3.656;2023-04-23T10:56:41;17.80;99.90
27544;DHT22;17996;51.056;3.656;2023-04-23T10:59:18;17.90;99.90
27544;DHT22;17996;51.056;3.656;2023-04-23T11:01:46;18.00;99.90
27544;DHT22;17996;51.056;3.656;2023-04-23T11:04:23;18.00;99.90
27544;DHT22;17996;51.056;3.656;2023-04-23T11:06:52;17.90;99.90
27544;DHT22;17996;51.056;3.656;2023-04-23T11:09:30;17.90;99.90
27544;DHT22;17996;51.056;3.656;2023-04-23T11:11:57;18.00;99.90
27544;DHT22;17996;51.056;3.656;2023-04-23T11:14:46;18.20;99.90
27544;DHT22;17996;51.056;3.656;2023-04-23T11:17:14;18.50;99.90
27544;DHT22;17996;51.056;3.656;2023-04-23T11:20:09;18.60;99.90
27544;DHT22;17996;51.056;3.656;2023-04-23T11:22:45;18.60;99.90
27544;DHT22;17996;51.056;3.656;2023-04-23T11:25:22;18.60;99.90
27544;DHT22;17996;51.056;3.656;2023-04-23T11:27:50;18.50;99.90
27544;DHT22;17996;51.056;3.656;2023-04-23T11:30:21;18.30;99.90
27544;DHT22;17996;51.056;3.656;2023-04-23T11:32:49;18.20;99.90
27544;DHT22;17996;51.056;3.656;2023-04-23T11:35:16;18.00;99.90
27544;DHT22;17996;51.056;3.656;2023-04-23T11:37:43;17.70;99.90
27544;DHT22;17996;51.056;3.656;2023-04-23T11:40:13;17.60;99.90
27544;DHT22;17996;51.056;3.656;2023-04-23T11:42:44;17.50;99.90
27544;DHT22;17996;51.056;3.656;2023-04-23T11:47:40;17.20;99.90
27544;DHT22;17996;51.056;3.656;2023-04-23T11:50:06;17.10;99.90
27544;DHT22;17996;51.056;3.656;2023-04-23T11:52:33;17.20;99.90
27544;DHT22;17996;51.056;3.656;2023-04-23T11:55:02;17.30;99.90
27544;DHT22;17996;51.056;3.656;2023-04-23T11:57:29;17.40;99.90
27544;DHT22;17996;51.056;3.656;2023-04-23T11:59:54;17.40;99.90
27544;DHT22;17996;51.056;3.656;2023-04-23T12:02:23;17.40;99.90
27544;DHT22;17996;51.056;3.656;2023-04-23T12:04:48;17.40;99.90
27544;DHT22;17996;51.056;3.656;2023-04-23T12:07:14;17.40;99.90
27544;DHT22;17996;51.056;3.656;2023-04-23T12:09:39;17.60;99.90
27544;DHT22;17996;51.056;3.656;2023-04-23T12:12:05;17.60;99.90
27544;DHT22;17996;51.056;3.656;2023-04-23T12:14:31;17.70;99.90
27544;DHT22;17996;51.056;3.656;2023-04-23T12:17:08;17.80;99.90
27544;DHT22;17996;51.056;3.656;2023-04-23T12:19:34;18.00;99.90
27544;DHT22;17996;51.056;3.656;2023-04-23T12:22:02;17.90;99.90
27544;DHT22;17996;51.056;3.656;2023-04-23T12:24:30;18.00;99.90
27544;DHT22;17996;51.056;3.656;2023-04-23T12:26:58;18.10;99.90
27544;DHT22;17996;51.056;3.656;2023-04-23T12:29:25;18.20;99.90
27544;DHT22;17996;51.056;3.656;2023-04-23T12:31:52;18.10;99.90
27544;DHT22;17996;51.056;3.656;2023-04-23T12:34:19;18.00;99.90
27544;DHT22;17996;51.056;3.656;2023-04-23T12:36:53;17.90;99.90
27544;DHT22;17996;51.056;3.656;2023-04-23T12:41:52;17.80;99.90
27544;DHT22;17996;51.056;3.656;2023-04-23T12:44:19;17.80;99.90
27544;DHT22;17996;51.056;3.656;2023-04-23T12:46:49;17.80;99.90
27544;DHT22;17996;51.056;3.656;2023-04-23T12:49:14;17.70;99.90
27544;DHT22;17996;51.056;3.656;2023-04-23T12:51:40;17.70;99.90
27544;DHT22;17996;51.056;3.656;2023-04-23T12:54:05;17.50;99.90
27544;DHT22;17996;51.056;3.656;2023-04-23T12:56:31;17.50;99.90
27544;DHT22;17996;51.056;3.656;2023-04-23T12:58:57;17.50;99.90
27544;DHT22;17996;51.056;3.656;2023-04-23T13:01:26;17.30;99.90
27544;DHT22;17996;51.056;3.656;2023-04-23T13:03:52;17.10;99.90
27544;DHT22;17996;51.056;3.656;2023-04-23T13:06:17;16.90;99.90
27544;DHT22;17996;51.056;3.656;2023-04-23T13:08:43;16.80;99.90
27544;DHT22;17996;51.056;3.656;2023-04-23T13:11:09;16.80;99.90
27544;DHT22;17996;51.056;3.656;2023-04-23T13:13:35;16.80;99.90
27544;DHT22;17996;51.056;3.656;2023-04-23T13:16:01;16.70;99.90
27544;DHT22;17996;51.056;3.656;2023-04-23T13:18:26;16.70;99.90
27544;DHT22;17996;51.056;3.656;2023-04-23T13:20:52;16.60;99.90
27544;DHT22;17996;51.056;3.656;2023-04-23T13:23:18;16.60;99.90
27544;DHT22;17996;51.056;3.656;2023-04-23T13:25:43;16.50;99.90
27544;DHT22;17996;51.056;3.656;2023-04-23T13:28:09;16.50;99.90
27544;DHT22;17996;51.056;3.656;2023-04-23T13:30:34;16.70;99.90
27544;DHT22;17996;51.056;3.656;2023-04-23T13:33:00;16.80;99.90
27544;DHT22;17996;51.056;3.656;2023-04-23T13:35:26;16.90;99.90
27544;DHT22;17996;51.056;3.656;2023-04-23T13:37:51;17.00;99.90
27544;DHT22;17996;51.056;3.656;2023-04-23T13:40:17;17.00;99.90
27544;DHT22;17996;51.056;3.656;2023-04-23T13:42:43;17.00;99.90
27544;DHT22;17996;51.056;3.656;2023-04-23T13:45:09;17.00;99.90
27544;DHT22;17996;51.056;3.656;2023-04-23T13:47:35;16.90;99.90
27544;DHT22;17996;51.056;3.656;2023-04-23T13:50:01;16.90;99.90
27544;DHT22;17996;51.056;3.656;2023-04-23T13:52:29;16.90;99.90
27544;DHT22;17996;51.056;3.656;2023-04-23T13:54:56;16.60;99.90
27544;DHT22;17996;51.056;3.656;2023-04-23T13:57:22;16.60;99.90
27544;DHT22;17996;51.056;3.656;2023-04-23T13:59:48;16.60;99.90
27544;DHT22;17996;51.056;3.656;2023-04-23T14:02:14;16.60;99.90
27544;DHT22;17996;51.056;3.656;2023-04-23T14:04:40;16.60;99.90
27544;DHT22;17996;51.056;3.656;2023-04-23T14:07:05;16.60;99.90
27544;DHT22;17996;51.056;3.656;2023-04-23T14:09:31;16.50;99.90
27544;DHT22;17996;51.056;3.656;2023-04-23T14:11:57;16.40;99.90
27544;DHT22;17996;51.056;3.656;2023-04-23T14:14:23;16.50;99.90
27544;DHT22;17996;51.056;3.656;2023-04-23T14:16:48;16.80;99.90
27544;DHT22;17996;51.056;3.656;2023-04-23T14:19:14;17.00;99.90
27544;DHT22;17996;51.056;3.656;2023-04-23T14:21:39;17.20;99.90
27544;DHT22;17996;51.056;3.656;2023-04-23T14:24:22;17.30;99.90
27544;DHT22;17996;51.056;3.656;2023-04-23T14:26:49;17.40;99.90
27544;DHT22;17996;51.056;3.656;2023-04-23T14:32:05;17.50;99.90
27544;DHT22;17996;51.056;3.656;2023-04-23T14:34:31;17.60;99.90
27544;DHT22;17996;51.056;3.656;2023-04-23T14:37:00;17.60;99.90
27544;DHT22;17996;51.056;3.656;2023-04-23T14:39:26;17.60;99.90
27544;DHT22;17996;51.056;3.656;2023-04-23T14:41:54;17.50;99.90
27544;DHT22;17996;51.056;3.656;2023-04-23T14:44:19;17.40;99.90
27544;DHT22;17996;51.056;3.656;2023-04-23T14:46:48;17.40;99.90
27544;DHT22;17996;51.056;3.656;2023-04-23T14:49:16;17.40;99.90
27544;DHT22;17996;51.056;3.656;2023-04-23T14:51:42;17.50;99.90
27544;DHT22;17996;51.056;3.656;2023-04-23T14:54:08;17.50;99.90
27544;DHT22;17996;51.056;3.656;2023-04-23T14:56:34;17.60;99.90
27544;DHT22;17996;51.056;3.656;2023-04-23T14:59:00;17.70;99.90
27544;DHT22;17996;51.056;3.656;2023-04-23T15:01:26;17.90;99.90
27544;DHT22;17996;51.056;3.656;2023-04-23T15:03:52;18.00;99.90
27544;DHT22;17996;51.056;3.656;2023-04-23T15:06:17;18.20;99.90
27544;DHT22;17996;51.056;3.656;2023-04-23T15:08:43;18.10;99.90
27544;DHT22;17996;51.056;3.656;2023-04-23T15:11:09;18.00;99.90
27544;DHT22;17996;51.056;3.656;2023-04-23T15:16:31;17.60;99.90
27544;DHT22;17996;51.056;3.656;2023-04-23T15:18:59;17.30;99.90
27544;DHT22;17996;51.056;3.656;2023-04-23T15:21:25;17.10;99.90
27544;DHT22;17996;51.056;3.656;2023-04-23T15:23:51;17.00;99.90
27544;DHT22;17996;51.056;3.656;2023-04-23T15:26:17;16.90;99.90
27544;DHT22;17996;51.056;3.656;2023-04-23T15:28:42;16.80;99.90
27544;DHT22;17996;51.056;3.656;2023-04-23T15:31:08;16.70;99.90
27544;DHT22;17996;51.056;3.656;2023-04-23T15:33:34;16.60;99.90
27544;DHT22;17996;51.056;3.656;2023-04-23T15:36:00;16.60;99.90
27544;DHT22;17996;51.056;3.656;2023-04-23T15:38:25;16.50;99.90
27544;DHT22;17996;51.056;3.656;2023-04-23T15:40:51;16.50;99.90
27544;DHT22;17996;51.056;3.656;2023-04-23T15:43:17;16.50;99.90